sensor_id;sensor_type;location;lat;lon;timestamp;pressure;altitude;pressure_sealevel;temperature;humidity
46778;BME280;32536;47.128;8.746;2023-07-13T00:00:11;91868.81;;;20.20;58.00
46778;BME280;32536;47.128;8.746;2023-07-13T00:02:42;91854.13;;;20.18;57.74
46778;BME280;32536;47.128;8.746;2023-07-13T00:05:09;91852.66;;;20.17;57.58
46778;BME280;32536;47.128;8.746;2023-07-13T00:07:35;91855.38;;;20.17;57.80
46778;BME280;32536;47.128;8.746;2023-07-13T00:10:03;91848.69;;;20.18;57.98
46778;BME280;32536;47.128;8.746;2023-07-13T00:12:35;91853.84;;;20.15;57.98
46778;BME280;32536;47.128;8.746;2023-07-13T00:15:13;91843.25;;;20.18;58.42
46778;BME280;32536;47.128;8.746;2023-07-13T00:17:49;91830.72;;;20.20;57.83
46778;BME280;32536;47.128;8.746;2023-07-13T00:20:17;91828.44;;;20.19;58.13
46778;BME280;32536;47.128;8.746;2023-07-13T00:23:18;91817.28;;;20.17;58.33
46778;BME280;32536;47.128;8.746;2023-07-13T00:25:45;91817.56;;;20.19;58.53
46778;BME280;32536;47.128;8.746;2023-07-13T00:28:11;91815.78;;;20.15;58.56
46778;BME280;32536;47.128;8.746;2023-07-13T00:30:38;91815.47;;;20.13;58.86
46778;BME280;32536;47.128;8.746;2023-07-13T00:33:05;91814.91;;;20.09;58.57
46778;BME280;32536;47.128;8.746;2023-07-13T00:35:34;91811.72;;;20.11;58.65
46778;BME280;32536;47.128;8.746;2023-07-13T00:38:00;91803.38;;;20.14;58.56
46778;BME280;32536;47.128;8.746;2023-07-13T00:40:27;91801.25;;;20.19;58.37
46778;BME280;32536;47.128;8.746;2023-07-13T00:42:57;91808.03;;;20.23;58.38
46778;BME280;32536;47.128;8.746;2023-07-13T00:47:51;91810.88;;;20.29;58.20
46778;BME280;32536;47.128;8.746;2023-07-13T00:50:19;91811.16;;;20.31;57.83
46778;BME280;32536;47.128;8.746;2023-07-13T00:52:50;91810.72;;;20.33;57.68
46778;BME280;32536;47.128;8.746;2023-07-13T00:55:20;91800.25;;;20.31;57.82
46778;BME280;32536;47.128;8.746;2023-07-13T00:57:48;91802.97;;;20.31;57.80
46778;BME280;32536;47.128;8.746;2023-07-13T01:00:15;91813.88;;;20.31;57.83
46778;BME280;32536;47.128;8.746;2023-07-13T01:02:44;91819.31;;;20.31;57.78
46778;BME280;32536;47.128;8.746;2023-07-13T01:05:15;91811.75;;;20.35;58.05
46778;BME280;32536;47.128;8.746;2023-07-13T01:07:43;91798.41;;;20.37;57.79
46778;BME280;32536;47.128;8.746;2023-07-13T01:10:26;91809.94;;;20.32;58.26
46778;BME280;32536;47.128;8.746;2023-07-13T01:12:54;91808.09;;;20.38;58.25
46778;BME280;32536;47.128;8.746;2023-07-13T01:18:24;91784.75;;;20.46;58.48
46778;BME280;32536;47.128;8.746;2023-07-13T01:21:02;91780.09;;;20.47;58.46
46778;BME280;32536;47.128;8.746;2023-07-13T01:23:31;91777.97;;;20.42;58.40
46778;BME280;32536;47.128;8.746;2023-07-13T01:25:59;91781.34;;;20.37;58.97
46778;BME280;32536;47.128;8.746;2023-07-13T01:28:27;91795.91;;;20.34;58.81
46778;BME280;32536;47.128;8.746;2023-07-13T01:30:57;91792.41;;;20.33;58.78
46778;BME280;32536;47.128;8.746;2023-07-13T01:33:24;91794.09;;;20.30;58.51
46778;BME280;32536;47.128;8.746;2023-07-13T01:35:51;91808.59;;;20.27;58.58
46778;BME280;32536;47.128;8.746;2023-07-13T01:38:21;91811.63;;;20.29;58.46
46778;BME280;32536;47.128;8.746;2023-07-13T01:40:50;91815.69;;;20.34;58.16
46778;BME280;32536;47.128;8.746;2023-07-13T01:43:18;91808.84;;;20.39;58.26
46778;BME280;32536;47.128;8.746;2023-07-13T01:45:45;91812.63;;;20.41;58.12
46778;BME280;32536;47.128;8.746;2023-07-13T01:48:12;91811.41;;;20.42;58.29
46778;BME280;32536;47.128;8.746;2023-07-13T01:50:39;91815.91;;;20.45;58.51
46778;BME280;32536;47.128;8.746;2023-07-13T01:53:06;91803.06;;;20.46;58.41
46778;BME280;32536;47.128;8.746;2023-07-13T01:55:33;91807.75;;;20.45;58.71
46778;BME280;32536;47.128;8.746;2023-07-13T01:58:01;91811.22;;;20.46;58.65
46778;BME280;32536;47.128;8.746;2023-07-13T02:00:28;91813.19;;;20.45;58.85
46778;BME280;32536;47.128;8.746;2023-07-13T02:02:55;91812.16;;;20.43;59.03
46778;BME280;32536;47.128;8.746;2023-07-13T02:05:23;91814.88;;;20.43;58.95
46778;BME280;32536;47.128;8.746;2023-07-13T02:07:50;91827.72;;;20.42;58.92
46778;BME280;32536;47.128;8.746;2023-07-13T02:10:17;91828.47;;;20.43;59.07
46778;BME280;32536;47.128;8.746;2023-07-13T02:12:43;91830.28;;;20.46;58.52
46778;BME280;32536;47.128;8.746;2023-07-13T02:15:10;91819.66;;;20.48;58.24
46778;BME280;32536;47.128;8.746;2023-07-13T02:17:37;91822.81;;;20.56;58.12
46778;BME280;32536;47.128;8.746;2023-07-13T02:20:05;91827.78;;;20.57;58.20
46778;BME280;32536;47.128;8.746;2023-07-13T02:22:33;91829.28;;;20.58;58.13
46778;BME280;32536;47.128;8.746;2023-07-13T02:25:01;91823.72;;;20.53;58.06
46778;BME280;32536;47.128;8.746;2023-07-13T02:27:28;91830.09;;;20.50;58.00
46778;BME280;32536;47.128;8.746;2023-07-13T02:33:00;91812.84;;;20.53;57.88
46778;BME280;32536;47.128;8.746;2023-07-13T02:35:27;91813.72;;;20.59;57.77
46778;BME280;32536;47.128;8.746;2023-07-13T02:37:54;91797.38;;;20.59;58.06
46778;BME280;32536;47.128;8.746;2023-07-13T02:40:21;91808.00;;;20.57;58.15
46778;BME280;32536;47.128;8.746;2023-07-13T02:42:47;91800.09;;;20.59;58.16
46778;BME280;32536;47.128;8.746;2023-07-13T02:45:14;91802.66;;;20.62;57.90
46778;BME280;32536;47.128;8.746;2023-07-13T02:47:41;91803.97;;;20.67;57.97
46778;BME280;32536;47.128;8.746;2023-07-13T02:50:08;91816.22;;;20.72;57.58
46778;BME280;32536;47.128;8.746;2023-07-13T02:52:35;91814.25;;;20.72;57.69
46778;BME280;32536;47.128;8.746;2023-07-13T02:55:02;91813.06;;;20.64;57.51
46778;BME280;32536;47.128;8.746;2023-07-13T02:57:29;91806.31;;;20.59;57.60
46778;BME280;32536;47.128;8.746;2023-07-13T02:59:58;91807.41;;;20.53;57.84
46778;BME280;32536;47.128;8.746;2023-07-13T03:02:25;91805.88;;;20.52;58.29
46778;BME280;32536;47.128;8.746;2023-07-13T03:04:55;91802.91;;;20.50;58.38
46778;BME280;32536;47.128;8.746;2023-07-13T03:07:22;91806.06;;;20.48;58.33
46778;BME280;32536;47.128;8.746;2023-07-13T03:09:48;91804.59;;;20.47;58.54
46778;BME280;32536;47.128;8.746;2023-07-13T03:12:15;91813.00;;;20.49;58.46
46778;BME280;32536;47.128;8.746;2023-07-13T03:14:42;91809.56;;;20.48;58.32
46778;BME280;32536;47.128;8.746;2023-07-13T03:17:08;91813.34;;;20.42;57.95
46778;BME280;32536;47.128;8.746;2023-07-13T03:19:35;91813.81;;;20.40;58.04
46778;BME280;32536;47.128;8.746;2023-07-13T03:22:02;91816.06;;;20.42;57.90
46778;BME280;32536;47.128;8.746;2023-07-13T03:24:29;91809.91;;;20.41;57.53
46778;BME280;32536;47.128;8.746;2023-07-13T03:26:56;91818.97;;;20.38;57.41
46778;BME280;32536;47.128;8.746;2023-07-13T03:29:22;91818.56;;;20.30;56.90
46778;BME280;32536;47.128;8.746;2023-07-13T03:31:49;91814.22;;;20.24;57.16
46778;BME280;32536;47.128;8.746;2023-07-13T03:34:16;91806.25;;;20.20;57.25
46778;BME280;32536;47.128;8.746;2023-07-13T03:36:43;91802.75;;;20.20;57.34
46778;BME280;32536;47.128;8.746;2023-07-13T03:39:09;91806.97;;;20.21;57.66
46778;BME280;32536;47.128;8.746;2023-07-13T03:41:36;91804.44;;;20.17;57.82
46778;BME280;32536;47.128;8.746;2023-07-13T03:44:04;91807.44;;;20.19;57.90
46778;BME280;32536;47.128;8.746;2023-07-13T03:46:31;91810.75;;;20.23;57.67
46778;BME280;32536;47.128;8.746;2023-07-13T03:48:59;91808.31;;;20.25;57.85
46778;BME280;32536;47.128;8.746;2023-07-13T03:51:26;91802.41;;;20.27;57.66
46778;BME280;32536;47.128;8.746;2023-07-13T03:53:52;91805.59;;;20.25;57.74
46778;BME280;32536;47.128;8.746;2023-07-13T03:56:19;91806.81;;;20.24;57.90
46778;BME280;32536;47.128;8.746;2023-07-13T03:58:48;91802.13;;;20.25;57.74
46778;BME280;32536;47.128;8.746;2023-07-13T04:01:18;91806.81;;;20.24;57.95
46778;BME280;32536;47.128;8.746;2023-07-13T04:03:45;91807.13;;;20.26;57.90
46778;BME280;32536;47.128;8.746;2023-07-13T04:06:20;91807.84;;;20.27;58.12
46778;BME280;32536;47.128;8.746;2023-07-13T04:08:52;91808.44;;;20.31;57.99
46778;BME280;32536;47.128;8.746;2023-07-13T04:11:22;91807.50;;;20.34;58.04
46778;BME280;32536;47.128;8.746;2023-07-13T04:13:50;91804.31;;;20.36;57.52
46778;BME280;32536;47.128;8.746;2023-07-13T04:16:18;91813.53;;;20.38;57.59
46778;BME280;32536;47.128;8.746;2023-07-13T04:18:46;91812.78;;;20.38;57.42
46778;BME280;32536;47.128;8.746;2023-07-13T04:21:14;91805.38;;;20.38;57.40
46778;BME280;32536;47.128;8.746;2023-07-13T04:23:41;91806.13;;;20.39;57.37
46778;BME280;32536;47.128;8.746;2023-07-13T04:26:08;91809.28;;;20.37;57.29
46778;BME280;32536;47.128;8.746;2023-07-13T04:28:35;91815.69;;;20.34;57.30
46778;BME280;32536;47.128;8.746;2023-07-13T04:31:02;91816.16;;;20.33;57.16
46778;BME280;32536;47.128;8.746;2023-07-13T04:33:29;91812.66;;;20.32;57.21
46778;BME280;32536;47.128;8.746;2023-07-13T04:35:56;91809.03;;;20.35;57.37
46778;BME280;32536;47.128;8.746;2023-07-13T04:38:24;91804.94;;;20.40;57.21
46778;BME280;32536;47.128;8.746;2023-07-13T04:40:56;91807.00;;;20.45;57.20
46778;BME280;32536;47.128;8.746;2023-07-13T04:43:25;91817.25;;;20.50;57.17
46778;BME280;32536;47.128;8.746;2023-07-13T04:45:52;91816.50;;;20.50;57.02
46778;BME280;32536;47.128;8.746;2023-07-13T04:48:19;91827.81;;;20.48;56.99
46778;BME280;32536;47.128;8.746;2023-07-13T04:50:47;91836.16;;;20.44;56.84
46778;BME280;32536;47.128;8.746;2023-07-13T04:53:19;91842.25;;;20.39;57.03
46778;BME280;32536;47.128;8.746;2023-07-13T04:55:46;91844.66;;;20.37;57.03
46778;BME280;32536;47.128;8.746;2023-07-13T04:58:13;91844.09;;;20.33;57.29
46778;BME280;32536;47.128;8.746;2023-07-13T05:00:39;91849.13;;;20.25;57.20
46778;BME280;32536;47.128;8.746;2023-07-13T05:03:06;91847.03;;;20.20;57.42
46778;BME280;32536;47.128;8.746;2023-07-13T05:05:33;91847.22;;;20.17;57.38
46778;BME280;32536;47.128;8.746;2023-07-13T05:07:59;91844.03;;;20.18;57.31
46778;BME280;32536;47.128;8.746;2023-07-13T05:10:27;91848.25;;;20.19;57.46
46778;BME280;32536;47.128;8.746;2023-07-13T05:12:54;91857.00;;;20.23;57.56
46778;BME280;32536;47.128;8.746;2023-07-13T05:15:22;91861.97;;;20.25;57.54
46778;BME280;32536;47.128;8.746;2023-07-13T05:17:49;91876.16;;;20.29;57.33
46778;BME280;32536;47.128;8.746;2023-07-13T05:20:18;91871.00;;;20.31;57.44
46778;BME280;32536;47.128;8.746;2023-07-13T05:22:45;91875.84;;;20.36;57.24
46778;BME280;32536;47.128;8.746;2023-07-13T05:25:16;91882.47;;;20.35;57.48
46778;BME280;32536;47.128;8.746;2023-07-13T05:27:43;91886.41;;;20.34;57.67
46778;BME280;32536;47.128;8.746;2023-07-13T05:30:11;91883.84;;;20.30;57.62
46778;BME280;32536;47.128;8.746;2023-07-13T05:32:38;91877.06;;;20.26;57.97
46778;BME280;32536;47.128;8.746;2023-07-13T05:35:06;91867.13;;;20.23;57.97
46778;BME280;32536;47.128;8.746;2023-07-13T05:37:33;91874.84;;;20.15;57.83
46778;BME280;32536;47.128;8.746;2023-07-13T05:39:59;91872.28;;;20.11;58.36
46778;BME280;32536;47.128;8.746;2023-07-13T05:42:26;91873.53;;;20.10;58.36
46778;BME280;32536;47.128;8.746;2023-07-13T05:44:53;91885.44;;;20.13;58.25
46778;BME280;32536;47.128;8.746;2023-07-13T05:47:19;91897.22;;;20.19;58.11
46778;BME280;32536;47.128;8.746;2023-07-13T05:49:46;91892.66;;;20.25;58.27
46778;BME280;32536;47.128;8.746;2023-07-13T05:52:13;91902.91;;;20.30;58.18
46778;BME280;32536;47.128;8.746;2023-07-13T05:54:39;91905.91;;;20.33;58.03
46778;BME280;32536;47.128;8.746;2023-07-13T05:57:06;91906.66;;;20.33;58.03
46778;BME280;32536;47.128;8.746;2023-07-13T05:59:33;91905.44;;;20.34;58.07
46778;BME280;32536;47.128;8.746;2023-07-13T06:02:00;91893.06;;;20.33;57.84
46778;BME280;32536;47.128;8.746;2023-07-13T06:04:26;91886.16;;;20.23;58.12
46778;BME280;32536;47.128;8.746;2023-07-13T06:06:53;91883.78;;;20.15;58.39
46778;BME280;32536;47.128;8.746;2023-07-13T06:09:20;91886.50;;;20.15;58.54
46778;BME280;32536;47.128;8.746;2023-07-13T06:11:47;91908.09;;;20.19;58.46
46778;BME280;32536;47.128;8.746;2023-07-13T06:14:13;91900.66;;;20.20;58.41
46778;BME280;32536;47.128;8.746;2023-07-13T06:16:40;91913.63;;;20.25;58.30
46778;BME280;32536;47.128;8.746;2023-07-13T06:19:07;91920.72;;;20.31;58.17
46778;BME280;32536;47.128;8.746;2023-07-13T06:21:34;91930.69;;;20.35;58.13
46778;BME280;32536;47.128;8.746;2023-07-13T06:24:00;91929.63;;;20.32;57.72
46778;BME280;32536;47.128;8.746;2023-07-13T06:26:27;91934.34;;;20.31;57.71
46778;BME280;32536;47.128;8.746;2023-07-13T06:28:54;91929.38;;;20.30;57.74
46778;BME280;32536;47.128;8.746;2023-07-13T06:31:21;91939.63;;;20.26;57.79
46778;BME280;32536;47.128;8.746;2023-07-13T06:33:47;91949.94;;;20.22;57.81
46778;BME280;32536;47.128;8.746;2023-07-13T06:36:14;91952.97;;;20.14;57.62
46778;BME280;32536;47.128;8.746;2023-07-13T06:38:41;91959.47;;;20.08;57.51
46778;BME280;32536;47.128;8.746;2023-07-13T06:41:08;91947.84;;;20.07;57.39
46778;BME280;32536;47.128;8.746;2023-07-13T06:43:34;91945.13;;;20.07;57.47
46778;BME280;32536;47.128;8.746;2023-07-13T06:46:01;91935.78;;;20.08;57.39
46778;BME280;32536;47.128;8.746;2023-07-13T06:48:28;91933.06;;;20.08;57.50
46778;BME280;32536;47.128;8.746;2023-07-13T06:50:55;91926.25;;;20.04;57.73
46778;BME280;32536;47.128;8.746;2023-07-13T06:53:22;91931.22;;;20.05;57.93
46778;BME280;32536;47.128;8.746;2023-07-13T06:55:49;91943.63;;;20.06;58.03
46778;BME280;32536;47.128;8.746;2023-07-13T06:58:18;91949.53;;;20.05;58.34
46778;BME280;32536;47.128;8.746;2023-07-13T07:00:45;91950.00;;;20.03;58.65
46778;BME280;32536;47.128;8.746;2023-07-13T07:03:12;91944.72;;;19.99;58.55
46778;BME280;32536;47.128;8.746;2023-07-13T07:05:39;91939.44;;;19.96;58.82
46778;BME280;32536;47.128;8.746;2023-07-13T07:08:06;91938.38;;;19.93;59.10
46778;BME280;32536;47.128;8.746;2023-07-13T07:10:33;91941.84;;;19.94;58.98
46778;BME280;32536;47.128;8.746;2023-07-13T07:13:01;91934.72;;;19.96;58.95
46778;BME280;32536;47.128;8.746;2023-07-13T07:15:29;91936.09;;;20.01;58.87
46778;BME280;32536;47.128;8.746;2023-07-13T07:17:56;91941.38;;;20.05;59.01
46778;BME280;32536;47.128;8.746;2023-07-13T07:20:22;91936.06;;;20.10;58.76
46778;BME280;32536;47.128;8.746;2023-07-13T07:22:49;91938.75;;;20.20;58.65
46778;BME280;32536;47.128;8.746;2023-07-13T07:25:16;91939.94;;;20.28;58.44
46778;BME280;32536;47.128;8.746;2023-07-13T07:27:43;91934.91;;;20.36;58.47
46778;BME280;32536;47.128;8.746;2023-07-13T07:30:10;91936.84;;;20.44;58.37
46778;BME280;32536;47.128;8.746;2023-07-13T07:32:37;91927.13;;;20.53;58.43
46778;BME280;32536;47.128;8.746;2023-07-13T07:35:05;91932.53;;;20.62;58.43
46778;BME280;32536;47.128;8.746;2023-07-13T07:37:32;91930.09;;;20.64;58.06
46778;BME280;32536;47.128;8.746;2023-07-13T07:39:58;91934.06;;;20.63;57.88
46778;BME280;32536;47.128;8.746;2023-07-13T07:42:25;91930.72;;;20.59;58.22
46778;BME280;32536;47.128;8.746;2023-07-13T07:44:52;91922.28;;;20.57;58.04
46778;BME280;32536;47.128;8.746;2023-07-13T07:47:18;91924.53;;;20.58;58.41
46778;BME280;32536;47.128;8.746;2023-07-13T07:49:45;91928.63;;;20.63;58.49
46778;BME280;32536;47.128;8.746;2023-07-13T07:52:12;91924.78;;;20.70;58.38
46778;BME280;32536;47.128;8.746;2023-07-13T07:54:39;91931.44;;;20.78;58.24
46778;BME280;32536;47.128;8.746;2023-07-13T07:57:06;91934.28;;;20.84;58.17
46778;BME280;32536;47.128;8.746;2023-07-13T07:59:33;91928.66;;;20.87;58.15
46778;BME280;32536;47.128;8.746;2023-07-13T08:02:00;91924.72;;;20.88;58.24
46778;BME280;32536;47.128;8.746;2023-07-13T08:04:28;91928.47;;;20.91;58.31
46778;BME280;32536;47.128;8.746;2023-07-13T08:06:55;91937.53;;;20.97;58.47
46778;BME280;32536;47.128;8.746;2023-07-13T08:09:23;91927.50;;;21.03;58.41
46778;BME280;32536;47.128;8.746;2023-07-13T08:11:49;91943.22;;;21.08;58.16
46778;BME280;32536;47.128;8.746;2023-07-13T08:14:17;91936.19;;;21.17;58.33
46778;BME280;32536;47.128;8.746;2023-07-13T08:16:44;91945.97;;;21.23;58.22
46778;BME280;32536;47.128;8.746;2023-07-13T08:19:11;91940.66;;;21.29;57.84
46778;BME280;32536;47.128;8.746;2023-07-13T08:21:38;91942.16;;;21.30;58.06
46778;BME280;32536;47.128;8.746;2023-07-13T08:24:04;91939.88;;;21.28;58.11
46778;BME280;32536;47.128;8.746;2023-07-13T08:26:31;91941.97;;;21.34;58.25
46778;BME280;32536;47.128;8.746;2023-07-13T08:28:58;91938.59;;;21.39;58.18
46778;BME280;32536;47.128;8.746;2023-07-13T08:31:25;91936.75;;;21.45;58.03
46778;BME280;32536;47.128;8.746;2023-07-13T08:33:52;91951.13;;;21.46;57.94
46778;BME280;32536;47.128;8.746;2023-07-13T08:36:30;91952.31;;;21.44;58.13
46778;BME280;32536;47.128;8.746;2023-07-13T08:38:57;91956.00;;;21.41;57.96
46778;BME280;32536;47.128;8.746;2023-07-13T08:41:24;91946.19;;;21.35;58.05
46778;BME280;32536;47.128;8.746;2023-07-13T08:43:58;91957.44;;;21.27;58.01
46778;BME280;32536;47.128;8.746;2023-07-13T08:46:27;91957.66;;;21.24;58.01
46778;BME280;32536;47.128;8.746;2023-07-13T08:49:02;91950.38;;;21.21;58.01
46778;BME280;32536;47.128;8.746;2023-07-13T08:51:51;91950.38;;;21.21;57.78
46778;BME280;32536;47.128;8.746;2023-07-13T08:54:30;91952.06;;;21.18;57.81
46778;BME280;32536;47.128;8.746;2023-07-13T08:57:13;91950.56;;;21.17;58.16
46778;BME280;32536;47.128;8.746;2023-07-13T08:59:42;91959.31;;;21.21;58.19
46778;BME280;32536;47.128;8.746;2023-07-13T09:02:27;91959.13;;;21.25;58.29
46778;BME280;32536;47.128;8.746;2023-07-13T09:05:10;91957.34;;;21.22;58.32
46778;BME280;32536;47.128;8.746;2023-07-13T09:10:56;91963.88;;;20.91;58.48
46778;BME280;32536;47.128;8.746;2023-07-13T09:16:56;91965.31;;;20.68;58.82
46778;BME280;32536;47.128;8.746;2023-07-13T09:19:28;91969.88;;;20.61;59.13
46778;BME280;32536;47.128;8.746;2023-07-13T09:21:59;91972.91;;;20.63;59.11
46778;BME280;32536;47.128;8.746;2023-07-13T09:27:14;91967.75;;;20.66;59.22
46778;BME280;32536;47.128;8.746;2023-07-13T09:32:45;91968.16;;;20.83;58.90
46778;BME280;32536;47.128;8.746;2023-07-13T09:35:20;91967.69;;;20.84;58.98
46778;BME280;32536;47.128;8.746;2023-07-13T09:37:49;91971.94;;;20.85;58.94
46778;BME280;32536;47.128;8.746;2023-07-13T09:41:19;91968.16;;;20.83;59.16
46778;BME280;32536;47.128;8.746;2023-07-13T09:43:25;91968.16;;;20.83;59.11
46778;BME280;32536;47.128;8.746;2023-07-13T09:45:55;91968.44;;;20.85;59.38
46778;BME280;32536;47.128;8.746;2023-07-13T09:48:21;91976.44;;;20.88;59.10
46778;BME280;32536;47.128;8.746;2023-07-13T09:50:54;91983.84;;;20.97;59.06
46778;BME280;32536;47.128;8.746;2023-07-13T09:53:22;91981.50;;;21.05;59.15
46778;BME280;32536;47.128;8.746;2023-07-13T09:55:49;91984.63;;;21.13;59.04
46778;BME280;32536;47.128;8.746;2023-07-13T09:58:22;91988.06;;;21.22;59.13
46778;BME280;32536;47.128;8.746;2023-07-13T10:01:01;91985.00;;;21.30;58.79
46778;BME280;32536;47.128;8.746;2023-07-13T10:03:32;91989.34;;;21.36;58.50
46778;BME280;32536;47.128;8.746;2023-07-13T10:06:15;91990.56;;;21.35;58.54
46778;BME280;32536;47.128;8.746;2023-07-13T10:08:45;91997.56;;;21.27;58.39
46778;BME280;32536;47.128;8.746;2023-07-13T10:11:19;92003.19;;;21.23;58.77
46778;BME280;32536;47.128;8.746;2023-07-13T10:13:56;92005.00;;;21.26;59.02
46778;BME280;32536;47.128;8.746;2023-07-13T10:16:31;92004.19;;;21.35;58.64
46778;BME280;32536;47.128;8.746;2023-07-13T10:19:00;92005.06;;;21.41;58.72
46778;BME280;32536;47.128;8.746;2023-07-13T10:21:39;92002.31;;;21.41;58.24
46778;BME280;32536;47.128;8.746;2023-07-13T10:24:29;92002.78;;;21.40;58.26
46778;BME280;32536;47.128;8.746;2023-07-13T10:30:00;91997.09;;;21.28;57.72
46778;BME280;32536;47.128;8.746;2023-07-13T10:32:49;91994.66;;;21.31;58.28
46778;BME280;32536;47.128;8.746;2023-07-13T10:35:18;91993.75;;;21.34;58.00
46778;BME280;32536;47.128;8.746;2023-07-13T10:37:51;92001.28;;;21.39;57.96
46778;BME280;32536;47.128;8.746;2023-07-13T10:40:39;92003.06;;;21.42;57.84
46778;BME280;32536;47.128;8.746;2023-07-13T10:43:22;92005.06;;;21.41;58.04
46778;BME280;32536;47.128;8.746;2023-07-13T10:46:03;92009.16;;;21.37;57.79
46778;BME280;32536;47.128;8.746;2023-07-13T10:48:33;92008.28;;;21.31;58.08
46778;BME280;32536;47.128;8.746;2023-07-13T10:51:04;92007.09;;;21.32;57.93
46778;BME280;32536;47.128;8.746;2023-07-13T10:53:33;92007.66;;;21.36;58.03
46778;BME280;32536;47.128;8.746;2023-07-13T10:58:43;92007.78;;;21.41;57.96
46778;BME280;32536;47.128;8.746;2023-07-13T11:01:13;92005.78;;;21.42;58.01
46778;BME280;32536;47.128;8.746;2023-07-13T11:06:18;92010.19;;;21.39;58.26
46778;BME280;32536;47.128;8.746;2023-07-13T11:12:10;92005.34;;;21.43;58.24
46778;BME280;32536;47.128;8.746;2023-07-13T11:15:43;92003.94;;;21.48;57.96
46778;BME280;32536;47.128;8.746;2023-07-13T11:18:21;91998.47;;;21.57;57.73
46778;BME280;32536;47.128;8.746;2023-07-13T11:20:49;91997.44;;;21.70;57.95
46778;BME280;32536;47.128;8.746;2023-07-13T11:25:47;91996.84;;;21.90;58.05
46778;BME280;32536;47.128;8.746;2023-07-13T11:28:18;91995.72;;;21.97;57.93
46778;BME280;32536;47.128;8.746;2023-07-13T11:30:59;92003.53;;;22.04;57.93
46778;BME280;32536;47.128;8.746;2023-07-13T11:36:18;91996.56;;;22.18;57.68
46778;BME280;32536;47.128;8.746;2023-07-13T11:39:19;91990.19;;;22.21;57.11
46778;BME280;32536;47.128;8.746;2023-07-13T11:42:00;91986.78;;;22.26;57.22
46778;BME280;32536;47.128;8.746;2023-07-13T11:44:47;91990.09;;;22.30;57.39
46778;BME280;32536;47.128;8.746;2023-07-13T11:47:21;91988.13;;;22.31;57.08
46778;BME280;32536;47.128;8.746;2023-07-13T11:49:51;91987.81;;;22.29;56.74
46778;BME280;32536;47.128;8.746;2023-07-13T11:52:23;91993.22;;;22.23;55.26
46778;BME280;32536;47.128;8.746;2023-07-13T11:54:57;91990.66;;;22.19;56.70
46778;BME280;32536;47.128;8.746;2023-07-13T11:57:29;91994.59;;;22.18;56.92
46778;BME280;32536;47.128;8.746;2023-07-13T12:00:21;91982.56;;;22.25;56.26
46778;BME280;32536;47.128;8.746;2023-07-13T12:02:51;91984.72;;;22.36;57.05
46778;BME280;32536;47.128;8.746;2023-07-13T12:05:20;91986.06;;;22.41;56.65
46778;BME280;32536;47.128;8.746;2023-07-13T12:07:49;91984.84;;;22.42;56.21
46778;BME280;32536;47.128;8.746;2023-07-13T12:10:24;91984.56;;;22.39;54.09
46778;BME280;32536;47.128;8.746;2023-07-13T12:12:58;91987.28;;;22.39;56.04
46778;BME280;32536;47.128;8.746;2023-07-13T12:15:40;91985.69;;;22.33;53.74
46778;BME280;32536;47.128;8.746;2023-07-13T12:18:22;91986.41;;;22.33;54.62
46778;BME280;32536;47.128;8.746;2023-07-13T12:20:57;91987.19;;;22.34;55.74
46778;BME280;32536;47.128;8.746;2023-07-13T12:24:02;91982.84;;;22.27;52.77
46778;BME280;32536;47.128;8.746;2023-07-13T12:26:30;91997.72;;;22.26;55.79
46778;BME280;32536;47.128;8.746;2023-07-13T12:29:01;92001.56;;;22.19;55.18
46778;BME280;32536;47.128;8.746;2023-07-13T12:31:36;91998.44;;;22.12;55.01
46778;BME280;32536;47.128;8.746;2023-07-13T12:34:09;91999.50;;;22.14;55.55
46778;BME280;32536;47.128;8.746;2023-07-13T12:36:40;92004.69;;;22.12;54.42
46778;BME280;32536;47.128;8.746;2023-07-13T12:39:24;91998.75;;;22.14;54.80
46778;BME280;32536;47.128;8.746;2023-07-13T12:44:58;91994.91;;;22.20;54.67
46778;BME280;32536;47.128;8.746;2023-07-13T12:47:30;91997.72;;;22.26;55.87
46778;BME280;32536;47.128;8.746;2023-07-13T12:50:08;91996.50;;;22.27;55.49
46778;BME280;32536;47.128;8.746;2023-07-13T12:52:59;91988.31;;;22.27;54.58
46778;BME280;32536;47.128;8.746;2023-07-13T12:55:29;91993.09;;;22.32;55.55
46778;BME280;32536;47.128;8.746;2023-07-13T12:57:59;91998.56;;;22.32;55.36
46778;BME280;32536;47.128;8.746;2023-07-13T13:00:36;91986.06;;;22.41;52.91
46778;BME280;32536;47.128;8.746;2023-07-13T13:03:07;91985.50;;;22.51;55.05
46778;BME280;32536;47.128;8.746;2023-07-13T13:05:44;91986.44;;;22.63;54.07
46778;BME280;32536;47.128;8.746;2023-07-13T13:08:12;91983.88;;;22.75;53.80
46778;BME280;32536;47.128;8.746;2023-07-13T13:10:39;91989.69;;;22.82;53.77
46778;BME280;32536;47.128;8.746;2023-07-13T13:13:05;91990.59;;;22.94;53.91
46778;BME280;32536;47.128;8.746;2023-07-13T13:15:32;91984.06;;;23.07;54.51
46778;BME280;32536;47.128;8.746;2023-07-13T13:17:59;91988.84;;;23.12;53.69
46778;BME280;32536;47.128;8.746;2023-07-13T13:20:25;91985.84;;;23.10;52.98
46778;BME280;32536;47.128;8.746;2023-07-13T13:22:53;91986.13;;;23.12;52.75
46778;BME280;32536;47.128;8.746;2023-07-13T13:25:20;91983.19;;;23.15;53.00
46778;BME280;32536;47.128;8.746;2023-07-13T13:27:48;91984.81;;;23.22;52.90
46778;BME280;32536;47.128;8.746;2023-07-13T13:30:17;91988.47;;;23.19;51.27
46778;BME280;32536;47.128;8.746;2023-07-13T13:32:46;91985.00;;;23.18;51.19
46778;BME280;32536;47.128;8.746;2023-07-13T13:35:14;91978.31;;;23.20;51.47
46778;BME280;32536;47.128;8.746;2023-07-13T13:37:43;91973.88;;;23.22;51.53
46778;BME280;32536;47.128;8.746;2023-07-13T13:40:17;91974.91;;;23.25;48.04
46778;BME280;32536;47.128;8.746;2023-07-13T13:42:45;91971.47;;;23.30;51.73
46778;BME280;32536;47.128;8.746;2023-07-13T13:45:12;91971.06;;;23.37;51.78
46778;BME280;32536;47.128;8.746;2023-07-13T13:47:39;91979.16;;;23.46;50.78
46778;BME280;32536;47.128;8.746;2023-07-13T13:50:22;91977.72;;;23.51;44.11
46778;BME280;32536;47.128;8.746;2023-07-13T13:52:49;91979.81;;;23.62;50.32
46778;BME280;32536;47.128;8.746;2023-07-13T13:55:19;91979.28;;;23.58;48.59